Time;durP1;ratioP1;P1;durP2;ratioP2;P2;SDS_P1;SDS_P2;PMS_P1;PMS_P2;Temp;Humidity;BMP_temperature;BMP_pressure;BME280_temperature;BME280_humidity;BME280_pressure;Samples;Min_cycle;Max_cycle;Signal;HPM_P1;HPM_P2
2023/03/06 00:00:25;;;;;;;9.95;5.15;;;;;;;-2.44;100.00;99927.47;6210264;23;20032;-71
2023/03/06 00:02:52;;;;;;;11.30;4.95;;;;;;;-2.42;100.00;99921.19;6190190;23;20108;-72
2023/03/06 00:05:18;;;;;;;11.80;5.78;;;;;;;-2.49;100.00;99914.66;6173420;23;20091;-72
2023/03/06 00:07:45;;;;;;;12.07;5.32;;;;;;;-2.42;100.00;99920.34;6179137;23;20092;-72
2023/03/06 00:10:18;;;;;;;8.73;5.05;;;;;;;-2.42;100.00;99913.31;6179774;23;20152;-72
2023/03/06 00:12:44;;;;;;;13.70;5.38;;;;;;;-2.45;100.00;99917.94;6180503;23;20028;-72
2023/03/06 00:15:11;;;;;;;7.90;5.18;;;;;;;-2.50;100.00;99907.72;6178934;23;20484;-72
2023/03/06 00:17:39;;;;;;;16.13;5.75;;;;;;;-2.69;100.00;99913.25;6179799;23;20024;-72
2023/03/06 00:20:06;;;;;;;12.30;6.60;;;;;;;-2.74;100.00;99911.88;6181027;23;20402;-72
2023/03/06 00:22:33;;;;;;;12.15;7.10;;;;;;;-2.76;100.00;99908.50;6175630;23;20020;-72
2023/03/06 00:24:59;;;;;;;12.75;6.22;;;;;;;-2.70;100.00;99906.34;6181526;23;20024;-71
2023/03/06 00:27:26;;;;;;;11.30;6.85;;;;;;;-3.01;100.00;99902.13;6182059;23;20027;-72
2023/03/06 00:29:57;;;;;;;13.52;7.47;;;;;;;-2.92;100.00;99890.25;6181841;23;20458;-72
2023/03/06 00:32:25;;;;;;;11.73;6.57;;;;;;;-3.18;100.00;99891.81;6209500;23;20032;-72
2023/03/06 00:34:53;;;;;;;10.32;6.97;;;;;;;-3.23;100.00;99891.25;6238335;23;20000;-69
2023/03/06 00:37:22;;;;;;;10.82;6.70;;;;;;;-3.00;100.00;99893.31;6240498;23;20028;-69
2023/03/06 00:39:49;;;;;;;13.45;7.78;;;;;;;-2.94;100.00;99887.69;6217046;23;20040;-73
2023/03/06 00:42:17;;;;;;;13.55;8.05;;;;;;;-3.37;100.00;99884.22;6211242;23;20126;-72
2023/03/06 00:44:44;;;;;;;12.13;7.18;;;;;;;-3.40;100.00;99873.91;6210849;23;20322;-72
2023/03/06 00:47:11;;;;;;;12.63;7.28;;;;;;;-3.30;100.00;99872.44;6209704;23;20047;-72
2023/03/06 00:49:38;;;;;;;12.85;7.43;;;;;;;-3.32;100.00;99869.88;6210860;23;20095;-72
2023/03/06 00:52:04;;;;;;;10.30;7.25;;;;;;;-3.15;100.00;99863.63;6211765;23;20028;-72
2023/03/06 00:54:31;;;;;;;10.02;6.95;;;;;;;-3.34;100.00;99865.69;6211971;23;20021;-71
2023/03/06 00:56:57;;;;;;;11.45;7.25;;;;;;;-3.14;100.00;99856.59;6210050;23;20020;-72
2023/03/06 00:59:24;;;;;;;12.70;7.45;;;;;;;-3.21;100.00;99852.66;6210739;23;20096;-71
2023/03/06 01:01:50;;;;;;;12.95;7.20;;;;;;;-3.20;100.00;99855.19;6212496;23;20377;-70
2023/03/06 03:26:54;;;;;;;12.20;5.93;;;;;;;-2.38;100.00;99678.41;6103772;22;1275229;-72
2023/03/06 03:29:21;;;;;;;12.93;5.72;;;;;;;-2.38;100.00;99669.69;6181428;23;20035;-72
2023/03/06 03:31:47;;;;;;;11.27;6.07;;;;;;;-2.33;100.00;99676.31;6151689;23;20519;-72
2023/03/06 03:34:14;;;;;;;11.68;5.97;;;;;;;-2.28;100.00;99669.91;6150769;23;20025;-72
2023/03/06 03:36:41;;;;;;;15.40;5.55;;;;;;;-2.28;100.00;99676.00;6150331;23;22364;-72
2023/03/06 03:39:08;;;;;;;14.65;5.43;;;;;;;-2.28;100.00;99675.16;6149995;23;20026;-72
2023/03/06 03:41:34;;;;;;;9.55;5.10;;;;;;;-2.29;100.00;99668.22;6149509;23;20028;-72
2023/03/06 03:44:01;;;;;;;10.73;5.30;;;;;;;-2.28;100.00;99669.91;6151159;23;20021;-72
2023/03/06 03:46:27;;;;;;;12.77;5.18;;;;;;;-2.19;100.00;99664.88;6149870;23;20117;-72
2023/03/06 03:48:54;;;;;;;17.05;5.20;;;;;;;-2.17;100.00;99659.50;6146446;23;20025;-72
2023/03/06 03:51:21;;;;;;;12.25;4.57;;;;;;;-2.17;100.00;99670.00;6151612;23;20033;-72
2023/03/06 03:53:48;;;;;;;8.45;4.47;;;;;;;-2.16;100.00;99669.09;6151552;23;20018;-72
2023/03/06 03:56:14;;;;;;;11.40;4.68;;;;;;;-2.15;100.00;99661.09;6149652;23;20087;-72
2023/03/06 03:58:41;;;;;;;8.60;4.18;;;;;;;-2.11;100.00;99667.81;6151719;23;20021;-72
2023/03/06 04:01:07;;;;;;;9.65;4.82;;;;;;;-2.05;100.00;99670.97;6150473;23;20025;-72
2023/03/06 04:03:34;;;;;;;14.80;4.78;;;;;;;-2.04;100.00;99662.97;6151188;23;20029;-72
2023/03/06 04:06:01;;;;;;;10.18;5.38;;;;;;;-2.00;100.00;99667.06;6150911;23;20347;-71
2023/03/06 04:08:27;;;;;;;16.63;4.93;;;;;;;-2.02;100.00;99663.72;6149687;23;20026;-71
2023/03/06 04:10:54;;;;;;;10.88;4.57;;;;;;;-2.04;100.00;99668.22;6151559;23;20028;-73
2023/03/06 04:13:21;;;;;;;8.73;4.85;;;;;;;-1.98;100.00;99675.69;6151735;23;20059;-73
2023/03/06 04:15:49;;;;;;;14.25;4.75;;;;;;;-1.91;100.00;99687.47;6150469;23;20048;-73
2023/03/06 04:18:17;;;;;;;8.32;4.25;;;;;;;-1.93;100.00;99686.72;6150407;23;20060;-72
2023/03/06 04:20:45;;;;;;;14.73;5.55;;;;;;;-2.02;100.00;99687.38;6153206;23;20104;-71
2023/03/06 04:23:11;;;;;;;9.30;4.97;;;;;;;-1.99;100.00;99697.69;6157463;23;20100;-73
2023/03/06 04:25:38;;;;;;;11.02;5.25;;;;;;;-2.12;100.00;99692.41;6156334;23;20288;-73
2023/03/06 04:28:05;;;;;;;5.32;3.35;;;;;;;-2.19;100.00;99683.28;6180991;23;20031;-73
2023/03/06 04:30:32;;;;;;;11.70;4.07;;;;;;;-2.09;100.00;99688.75;6180979;23;20366;-72
2023/03/06 04:32:59;;;;;;;12.18;3.70;;;;;;;-2.16;100.00;99690.09;6180767;23;20023;-72
2023/03/06 04:35:26;;;;;;;4.38;2.67;;;;;;;-2.16;100.00;99692.75;6172666;23;20056;-72
2023/03/06 04:37:52;;;;;;;7.15;3.25;;;;;;;-2.20;100.00;99697.34;6155507;23;20454;-72
2023/03/06 04:40:28;;;;;;;7.00;2.90;;;;;;;-2.26;100.00;99702.19;6180301;23;20024;-73
2023/03/06 04:42:56;;;;;;;4.38;2.30;;;;;;;-2.30;100.00;99696.28;6225014;23;20075;-71
2023/03/06 04:45:23;;;;;;;7.45;2.60;;;;;;;-2.22;100.00;99688.72;6239168;23;20020;-72
2023/03/06 04:47:50;;;;;;;4.93;2.40;;;;;;;-2.23;100.00;99701.97;6240266;23;20021;-72
2023/03/06 04:50:18;;;;;;;3.95;2.80;;;;;;;-2.32;100.00;99703.44;6240059;23;20035;-72
2023/03/06 04:52:44;;;;;;;6.70;2.22;;;;;;;-2.38;100.00;99704.66;6240502;23;20024;-72
2023/03/06 04:55:13;;;;;;;3.80;2.58;;;;;;;-2.33;100.00;99705.22;6239697;23;20012;-72
2023/03/06 04:57:43;;;;;;;3.38;2.33;;;;;;;-2.35;100.00;99704.47;6240406;23;20091;-72
2023/03/06 05:00:29;;;;;;;5.68;2.53;;;;;;;-2.37;100.00;99698.50;6239464;23;20098;-72
2023/03/06 05:02:58;;;;;;;4.07;2.38;;;;;;;-2.45;100.00;99703.41;6241396;23;20096;-73
2023/03/06 05:05:25;;;;;;;5.72;3.10;;;;;;;-2.45;100.00;99706.03;6240189;23;20035;-72
2023/03/06 05:07:52;;;;;;;6.07;3.03;;;;;;;-2.46;100.00;99701.72;6240389;23;20233;-72
2023/03/06 05:10:19;;;;;;;3.20;2.22;;;;;;;-2.40;100.00;99709.19;6240293;23;20032;-73
2023/03/06 05:12:45;;;;;;;4.18;2.55;;;;;;;-2.42;100.00;99707.59;6241349;23;20108;-72
2023/03/06 05:15:13;;;;;;;4.53;2.50;;;;;;;-2.47;100.00;99707.09;6240133;23;20353;-72
2023/03/06 05:17:39;;;;;;;4.40;2.40;;;;;;;-2.45;100.00;99699.94;6240641;23;20036;-72
2023/03/06 05:25:23;;;;;;;7.53;4.30;;;;;;;-2.54;100.00;99716.31;6199391;22;20035;-69
2023/03/06 05:38:58;;;;;;;2.90;2.20;;;;;;;-2.60;100.00;99714.94;6176377;22;20024;-69
2023/03/06 05:50:07;;;;;;;3.08;2.40;;;;;;;-2.68;100.00;99717.22;6200231;22;20007;-69
2023/03/06 05:52:33;;;;;;;3.03;2.20;;;;;;;-2.72;100.00;99710.47;6238728;23;20012;-69
2023/03/06 05:55:00;;;;;;;2.45;2.17;;;;;;;-2.75;100.00;99716.78;6240740;23;20004;-69
2023/03/06 05:57:26;;;;;;;4.63;2.30;;;;;;;-2.70;100.00;99713.84;6241318;23;20004;-70
2023/03/06 05:59:53;;;;;;;2.80;1.90;;;;;;;-2.74;100.00;99709.75;6230809;23;20035;-72
2023/03/06 06:02:19;;;;;;;3.70;2.50;;;;;;;-2.68;100.00;99710.19;6207671;23;20031;-72
2023/03/06 06:04:46;;;;;;;3.45;2.47;;;;;;;-2.72;100.00;99713.97;6210315;23;20067;-73
2023/03/06 06:07:14;;;;;;;6.10;3.33;;;;;;;-2.77;100.00;99716.03;6210691;23;20361;-72
2023/03/06 06:09:44;;;;;;;8.27;4.47;;;;;;;-2.74;100.00;99710.56;6208907;23;20361;-72
2023/03/06 06:12:12;;;;;;;3.33;2.53;;;;;;;-2.70;100.00;99712.06;6209251;23;20017;-72
2023/03/06 06:14:38;;;;;;;4.10;2.83;;;;;;;-2.68;100.00;99718.06;6208047;23;20100;-71
2023/03/06 06:17:05;;;;;;;37.70;8.15;;;;;;;-2.72;100.00;99721.84;6184216;23;20028;-72
2023/03/06 06:19:31;;;;;;;18.95;4.57;;;;;;;-2.67;100.00;99721.53;6209863;23;20362;-71
2023/03/06 06:21:58;;;;;;;6.05;3.30;;;;;;;-2.71;100.00;99718.25;6210864;23;20401;-73
2023/03/06 06:24:25;;;;;;;6.25;3.40;;;;;;;-2.69;100.00;99720.75;6209259;23;20108;-71
2023/03/06 07:55:22;;;;;;;11.65;6.40;;;;;;;-2.06;100.00;99748.13;6232925;22;20035;-70
2023/03/06 08:00:24;;;;;;;4.95;3.15;;;;;;;-2.13;100.00;99747.69;6205418;22;20020;-72
2023/03/06 08:08:21;;;;;;;5.97;3.08;;;;;;;-2.07;100.00;99747.28;6187658;22;20488;-71
2023/03/06 08:10:48;;;;;;;7.72;4.60;;;;;;;-2.28;100.00;99744.31;6209971;23;20044;-72
2023/03/06 08:13:14;;;;;;;5.00;3.00;;;;;;;-2.24;100.00;99748.41;6207765;23;20026;-72
2023/03/06 08:15:46;;;;;;;21.33;5.85;;;;;;;-2.19;100.00;99758.63;6210633;23;20027;-71
2023/03/06 08:18:13;;;;;;;3.25;2.22;;;;;;;-2.18;100.00;99744.53;6208950;23;20016;-71
2023/03/06 08:20:39;;;;;;;3.28;2.33;;;;;;;-2.27;100.00;99753.03;6208620;23;20040;-72
2023/03/06 08:23:05;;;;;;;4.53;2.35;;;;;;;-2.34;100.00;99750.81;6210237;23;20063;-72
2023/03/06 08:25:32;;;;;;;9.45;3.78;;;;;;;-2.24;100.00;99752.81;6211909;23;20445;-72
2023/03/06 08:27:58;;;;;;;6.78;3.00;;;;;;;-2.23;100.00;99746.66;6210847;23;20027;-72
2023/03/06 08:30:25;;;;;;;6.38;2.50;;;;;;;-2.30;100.00;99754.09;6207959;23;20027;-72
2023/03/06 08:32:52;;;;;;;4.43;2.55;;;;;;;-2.18;100.00;99752.41;6209866;23;20350;-72
2023/03/06 08:35:18;;;;;;;8.95;2.67;;;;;;;-2.29;100.00;99750.50;6209599;23;20020;-72
2023/03/06 08:37:45;;;;;;;4.43;2.85;;;;;;;-2.33;100.00;99752.50;6209870;23;20067;-72
2023/03/06 08:40:12;;;;;;;5.30;2.20;;;;;;;-2.18;100.00;99757.69;6208974;23;20020;-72
2023/03/06 08:42:38;;;;;;;7.50;2.70;;;;;;;-2.24;100.00;99756.28;6208129;23;20027;-72
2023/03/06 08:45:06;;;;;;;10.23;3.15;;;;;;;-2.28;100.00;99764.47;6209782;23;20035;-72
2023/03/06 08:47:34;;;;;;;4.10;2.30;;;;;;;-2.31;100.00;99756.81;6209764;23;20028;-72
2023/03/06 08:50:00;;;;;;;4.38;2.28;;;;;;;-2.51;100.00;99772.09;6210260;23;20099;-72
2023/03/06 08:52:27;;;;;;;3.50;2.00;;;;;;;-2.39;100.00;99768.66;6210289;23;20112;-72
2023/03/06 08:54:53;;;;;;;5.38;2.50;;;;;;;-2.38;100.00;99772.97;6210009;23;20016;-72
2023/03/06 08:57:20;;;;;;;5.53;1.98;;;;;;;-2.50;100.00;99773.78;6209198;23;20020;-72
2023/03/06 08:59:46;;;;;;;3.90;2.28;;;;;;;-2.61;100.00;99776.28;6209854;23;20565;-71
2023/03/06 09:02:14;;;;;;;7.57;1.80;;;;;;;-2.57;100.00;99775.97;6210098;23;20095;-71
2023/03/06 09:04:40;;;;;;;5.10;2.10;;;;;;;-2.45;100.00;99771.69;6208998;23;20024;-71
2023/03/06 09:07:07;;;;;;;6.20;1.80;;;;;;;-2.53;100.00;99781.84;6208407;23;20027;-72
2023/03/06 09:09:33;;;;;;;4.97;1.65;;;;;;;-2.40;100.00;99771.41;6208346;23;20020;-72
2023/03/06 09:12:00;;;;;;;4.18;1.60;;;;;;;-2.63;100.00;99768.47;6208465;23;20017;-72
2023/03/06 09:14:27;;;;;;;5.47;1.63;;;;;;;-2.57;100.00;99781.22;6210100;23;20091;-72
2023/03/06 09:16:53;;;;;;;4.50;1.90;;;;;;;-2.69;100.00;99768.03;6209188;23;20036;-72
2023/03/06 09:19:20;;;;;;;2.97;1.60;;;;;;;-2.66;100.00;99766.03;6209364;23;20079;-72
2023/03/06 09:21:47;;;;;;;4.40;1.50;;;;;;;-2.75;100.00;99768.41;6210010;23;20020;-72
2023/03/06 09:24:13;;;;;;;5.72;1.52;;;;;;;-2.80;100.00;99768.72;6210634;23;20453;-72
2023/03/06 09:26:40;;;;;;;7.10;1.50;;;;;;;-2.73;100.00;99770.00;6211477;23;20055;-72
2023/03/06 09:29:14;;;;;;;5.20;1.85;;;;;;;-2.52;100.00;99774.81;6210889;23;20027;-72
2023/03/06 09:31:40;;;;;;;7.55;2.30;;;;;;;-2.44;100.00;99775.16;6205077;23;20386;-71
2023/03/06 09:34:07;;;;;;;6.13;2.00;;;;;;;-2.65;100.00;99777.38;6203210;23;20037;-72
2023/03/06 09:36:33;;;;;;;5.50;1.90;;;;;;;-2.35;100.00;99767.50;6200653;23;20095;-72
2023/03/06 09:39:18;;;;;;;2.95;1.70;;;;;;;-2.32;100.00;99774.34;6212656;23;20100;-72
2023/03/06 09:41:48;;;;;;;2.88;1.55;;;;;;;-2.34;100.00;99776.22;6212502;23;20093;-72
2023/03/06 09:44:19;;;;;;;4.82;1.95;;;;;;;-2.27;100.00;99777.50;6210354;23;20016;-72
2023/03/06 09:47:04;;;;;;;3.07;1.07;;;;;;;-2.27;100.00;99780.13;6211014;23;20508;-72
2023/03/06 09:49:51;;;;;;;5.80;1.75;;;;;;;-2.18;100.00;99771.66;6210713;23;20024;-73
2023/03/06 09:52:37;;;;;;;8.88;1.75;;;;;;;-2.16;100.00;99771.56;6210377;23;20103;-72
2023/03/06 09:55:11;;;;;;;2.42;1.42;;;;;;;-2.08;100.00;99771.88;6185714;23;20023;-72
2023/03/06 09:57:41;;;;;;;4.13;1.58;;;;;;;-2.04;100.00;99768.09;6212885;23;20420;-73
2023/03/06 10:00:17;;;;;;;3.42;1.75;;;;;;;-2.27;100.00;99774.03;6212068;23;20021;-72
2023/03/06 10:02:46;;;;;;;8.63;2.53;;;;;;;-2.20;100.00;99768.31;6210777;23;20354;-72
2023/03/06 10:05:24;;;;;;;13.43;1.67;;;;;;;-2.06;100.00;99777.91;6211310;23;20354;-73
2023/03/06 10:08:05;;;;;;;2.78;1.23;;;;;;;-2.14;100.00;99770.50;6211324;23;20040;-73
2023/03/06 10:10:43;;;;;;;2.93;1.43;;;;;;;-2.14;100.00;99774.91;6207816;23;20454;-73
2023/03/06 10:13:25;;;;;;;10.05;2.08;;;;;;;-2.10;100.00;99777.25;6211387;23;20017;-72
2023/03/06 10:15:53;;;;;;;;;;;;;;;-2.23;100.00;99781.63;6211510;23;20043;-72
2023/03/06 10:18:20;;;;;;;4.28;1.35;;;;;;;-2.12;100.00;99773.03;6211681;23;19939;-73
2023/03/06 10:20:51;;;;;;;5.57;2.08;;;;;;;-2.04;100.00;99781.25;6212179;23;20044;-73
2023/03/06 10:23:30;;;;;;;6.82;1.63;;;;;;;-2.13;100.00;99784.47;6210416;23;20327;-73
2023/03/06 10:26:09;;;;;;;5.43;1.58;;;;;;;-2.27;100.00;99776.66;6211043;23;20092;-73
2023/03/06 10:28:45;;;;;;;2.97;1.33;;;;;;;-2.03;100.00;99774.19;6211830;23;20028;-72
2023/03/06 10:31:19;;;;;;;6.82;1.50;;;;;;;-2.01;100.00;99781.03;6211291;23;20020;-72
2023/03/06 10:33:51;;;;;;;7.85;1.73;;;;;;;-2.08;100.00;99779.78;6211881;23;20017;-73
2023/03/06 10:36:19;;;;;;;6.00;1.45;;;;;;;-2.16;100.00;99784.72;6185315;23;20450;-72
2023/03/06 10:38:47;;;;;;;3.97;1.27;;;;;;;-2.01;100.00;99788.94;6178732;23;20100;-73
2023/03/06 10:41:24;;;;;;;6.38;1.85;;;;;;;-2.44;100.00;99783.88;6202697;23;20021;-72
2023/03/06 10:44:00;;;;;;;3.20;1.40;;;;;;;-2.15;100.00;99783.75;6210048;23;20322;-72
2023/03/06 10:46:30;;;;;;;4.53;1.50;;;;;;;-2.27;100.00;99779.28;6211350;23;20024;-72
2023/03/06 10:48:59;;;;;;;6.53;1.33;;;;;;;-2.16;100.00;99782.06;6183427;23;20021;-72
2023/03/06 10:51:28;;;;;;;3.72;1.30;;;;;;;-2.01;100.00;99785.47;6198069;23;20028;-72
2023/03/06 10:54:03;;;;;;;7.72;1.88;;;;;;;-1.84;100.00;99789.59;6210681;23;20397;-72
2023/03/06 10:56:35;;;;;;;9.98;1.85;;;;;;;-1.87;100.00;99777.47;6202332;23;20087;-73
2023/03/06 10:59:15;;;;;;;5.63;1.70;;;;;;;-1.95;100.00;99783.25;6210643;23;20100;-72
2023/03/06 11:01:44;;;;;;;8.93;1.60;;;;;;;-1.78;100.00;99781.25;6210627;23;20410;-72
2023/03/06 11:04:19;;;;;;;6.70;1.42;;;;;;;-1.74;100.00;99777.50;6210125;23;20040;-72
2023/03/06 11:06:47;;;;;;;4.72;1.30;;;;;;;-1.70;100.00;99777.19;6210519;23;20027;-72
2023/03/06 11:09:22;;;;;;;7.07;1.52;;;;;;;-1.67;100.00;99776.13;6178284;23;20091;-72
2023/03/06 11:11:50;;;;;;;5.00;1.13;;;;;;;-1.97;100.00;99777.25;6202730;23;20398;-73
2023/03/06 11:14:23;;;;;;;6.10;1.20;;;;;;;-2.15;100.00;99776.69;6210579;23;20016;-73
2023/03/06 11:16:53;;;;;;;4.53;1.08;;;;;;;-1.80;100.00;99780.53;6210307;23;20021;-72
2023/03/06 11:19:24;;;;;;;8.13;2.15;;;;;;;-1.91;100.00;99776.00;6185720;23;20112;-72
2023/03/06 11:22:05;;;;;;;12.70;1.88;;;;;;;-1.80;100.00;99777.91;6198959;23;20020;-73
2023/03/06 11:24:37;;;;;;;3.38;0.80;;;;;;;-1.69;100.00;99772.75;6208785;23;20051;-72
2023/03/06 11:27:23;;;;;;;4.80;1.15;;;;;;;-1.65;100.00;99769.78;6210129;23;20087;-72
2023/03/06 11:29:52;;;;;;;7.63;2.30;;;;;;;-1.71;100.00;99764.16;6208105;23;20357;-73
2023/03/06 11:32:26;;;;;;;6.68;1.55;;;;;;;-2.07;100.00;99762.22;6209193;23;20032;-72
2023/03/06 11:35:11;;;;;;;8.18;1.90;;;;;;;-2.09;100.00;99770.22;6209905;23;20024;-72
2023/03/06 11:37:41;;;;;;;3.55;1.30;;;;;;;-1.83;100.00;99764.97;6210238;23;20028;-72
2023/03/06 11:40:08;;;;;;;5.28;0.90;;;;;;;-1.69;100.00;99756.97;6209466;23;20020;-72
2023/03/06 11:42:39;;;;;;;5.43;1.15;;;;;;;-1.60;100.00;99761.63;6209968;23;20028;-72
2023/03/06 11:45:25;;;;;;;5.55;1.63;;;;;;;-1.50;100.00;99757.41;6210649;23;20042;-73
2023/03/06 11:48:12;;;;;;;12.05;1.70;;;;;;;-1.57;100.00;99757.94;6208819;23;20450;-72
2023/03/06 11:50:44;;;;;;;4.10;1.20;;;;;;;-1.49;100.00;99759.06;6210053;23;20028;-72
2023/03/06 11:53:15;;;;;;;11.88;1.15;;;;;;;-1.35;100.00;99747.59;6209161;23;20027;-72
2023/03/06 11:55:59;;;;;;;9.00;1.02;;;;;;;-1.28;100.00;99753.25;6209591;23;20099;-72
2023/03/06 11:58:34;;;;;;;3.55;0.95;;;;;;;-1.33;100.00;99748.34;6209493;23;20115;-73
2023/03/06 12:01:08;;;;;;;13.20;1.30;;;;;;;-1.38;100.00;99745.16;6209366;23;20362;-73
2023/03/06 12:04:11;;;;;;;7.55;1.52;;;;;;;-1.21;100.00;99749.25;6211720;23;20108;-72
2023/03/06 12:06:44;;;;;;;6.90;1.10;;;;;;;-1.17;100.00;99750.69;6145469;23;20024;-72
2023/03/06 12:09:10;;;;;;;8.27;1.08;;;;;;;-1.06;100.00;99740.25;6207155;23;20021;-72
2023/03/06 12:11:59;;;;;;;8.38;1.30;;;;;;;-0.94;100.00;99734.13;6210660;23;20024;-72
2023/03/06 12:14:39;;;;;;;6.03;1.10;;;;;;;-0.85;100.00;99737.03;6208430;23;20027;-72
2023/03/06 12:17:12;;;;;;;5.82;1.20;;;;;;;-0.99;100.00;99738.88;6187031;23;20029;-73
2023/03/06 12:19:52;;;;;;;9.65;1.08;;;;;;;-0.94;100.00;99738.53;6194774;23;20107;-73
2023/03/06 12:22:18;;;;;;;4.75;1.48;;;;;;;-0.95;100.00;99734.25;6211017;23;20028;-73
2023/03/06 12:24:53;;;;;;;8.30;1.50;;;;;;;-0.89;100.00;99736.41;6184098;23;20514;-74
2023/03/06 12:27:40;;;;;;;6.45;1.42;;;;;;;-0.96;100.00;99732.53;6210966;23;20349;-73
2023/03/06 12:30:34;;;;;;;8.50;1.50;;;;;;;-1.07;100.00;99735.94;6208813;23;20020;-72
2023/03/06 12:33:19;;;;;;;7.07;1.63;;;;;;;-1.06;100.00;99727.09;6210212;23;20390;-73
2023/03/06 12:36:16;;;;;;;6.22;1.25;;;;;;;-1.09;100.00;99734.34;6209345;23;20103;-73
2023/03/06 12:39:00;;;;;;;8.30;1.55;;;;;;;-0.90;100.00;99738.19;6207547;23;20099;-73
2023/03/06 12:41:29;;;;;;;6.97;1.17;;;;;;;-0.85;100.00;99742.28;6209278;23;20038;-73
2023/03/06 12:44:13;;;;;;;10.85;1.25;;;;;;;-0.64;100.00;99735.47;6208864;23;20023;-73
2023/03/06 12:46:45;;;;;;;9.68;1.50;;;;;;;-0.48;100.00;99733.38;6208929;23;20052;-72
2023/03/06 12:49:16;;;;;;;;;;;;;;;-0.43;100.00;99728.63;6207668;23;20044;-73
2023/03/06 12:51:58;;;;;;;4.45;1.52;;;;;;;0.01;100.00;99727.03;6207013;23;20332;-73
2023/03/06 12:54:29;;;;;;;3.58;1.08;;;;;;;0.05;100.00;99730.28;6209287;23;20119;-73
2023/03/06 12:56:58;;;;;;;4.65;1.13;;;;;;;0.02;100.00;99723.47;6209338;23;20020;-73
2023/03/06 12:59:43;;;;;;;8.55;1.80;;;;;;;-0.02;100.00;99732.59;6209178;23;20035;-74
2023/03/06 13:02:12;;;;;;;6.78;1.40;;;;;;;0.01;100.00;99726.22;6205915;23;20021;-73
2023/03/06 13:05:04;;;;;;;9.48;1.38;;;;;;;0.28;100.00;99737.28;6208367;23;20027;-73
2023/03/06 13:07:55;;;;;;;4.40;1.83;;;;;;;0.79;100.00;99725.41;6206999;23;20024;-73
2023/03/06 13:10:27;;;;;;;4.07;1.73;;;;;;;0.62;100.00;99723.28;6209174;23;20041;-73
2023/03/06 13:12:59;;;;;;;6.88;1.35;;;;;;;0.77;100.00;99708.84;6210015;23;20031;-73
2023/03/06 13:15:39;;;;;;;7.30;1.80;;;;;;;0.75;100.00;99722.19;6210054;23;20025;-73
2023/03/06 13:18:20;;;;;;;9.73;1.90;;;;;;;0.96;100.00;99710.88;6208038;23;20020;-73
2023/03/06 13:20:51;;;;;;;;;;;;;;;0.73;100.00;99713.53;6208000;23;20020;-74
2023/03/06 13:23:33;;;;;;;6.18;1.25;;;;;;;0.64;100.00;99708.13;6206944;23;19941;-74
2023/03/06 13:26:02;;;;;;;6.75;1.50;;;;;;;0.01;100.00;99713.03;6207468;23;20027;-73
2023/03/06 13:28:44;;;;;;;9.30;2.17;;;;;;;-0.56;100.00;99712.03;6210850;23;20272;-73
2023/03/06 13:31:12;;;;;;;17.85;2.25;;;;;;;-0.32;100.00;99701.47;6208242;23;20017;-73
2023/03/06 13:33:59;;;;;;;7.90;2.08;;;;;;;-0.07;100.00;99707.50;6207823;23;20030;-73
2023/03/06 13:36:28;;;;;;;8.82;2.15;;;;;;;-0.15;100.00;99700.19;6208118;23;20020;-73
2023/03/06 13:39:11;;;;;;;9.43;1.70;;;;;;;0.05;100.00;99696.00;6209104;23;20509;-72
2023/03/06 13:41:42;;;;;;;4.50;1.48;;;;;;;0.16;100.00;99692.56;6206450;23;20027;-73
2023/03/06 13:44:24;;;;;;;7.03;1.98;;;;;;;-0.03;100.00;99693.13;6208608;23;20039;-73
2023/03/06 13:47:03;;;;;;;7.05;1.60;;;;;;;-0.17;100.00;99695.97;6206527;23;20067;-73
2023/03/06 13:49:30;;;;;;;3.70;1.33;;;;;;;-0.01;100.00;99699.13;6207656;23;20017;-73
2023/03/06 13:52:17;;;;;;;5.82;1.40;;;;;;;-0.20;100.00;99703.16;6183349;23;20019;-72
2023/03/06 13:54:55;;;;;;;7.80;1.20;;;;;;;-0.10;100.00;99708.56;6208118;23;20051;-72
2023/03/06 13:57:43;;;;;;;8.75;1.58;;;;;;;0.01;100.00;99702.47;6182082;23;20096;-73
2023/03/06 14:00:41;;;;;;;7.25;1.75;;;;;;;-0.17;100.00;99698.63;6207320;23;20020;-72
2023/03/06 14:03:19;;;;;;;9.15;2.33;;;;;;;-0.20;100.00;99695.25;6206861;23;20021;-73
2023/03/06 14:05:48;;;;;;;12.65;2.70;;;;;;;-0.28;100.00;99695.00;6208129;23;20027;-73
2023/03/06 14:08:18;;;;;;;11.27;2.33;;;;;;;-0.20;100.00;99694.41;6208923;23;20416;-73
2023/03/06 14:10:47;;;;;;;14.27;1.15;;;;;;;-0.14;100.00;99701.03;6208748;23;20151;-73
2023/03/06 14:13:21;;;;;;;3.33;1.00;;;;;;;-0.49;100.00;99694.81;6210942;23;20023;-72
2023/03/06 14:15:50;;;;;;;7.15;1.20;;;;;;;-0.21;100.00;99690.94;6201373;23;20108;-73
2023/03/06 14:18:19;;;;;;;12.02;1.58;;;;;;;-0.19;100.00;99689.03;6210057;23;20020;-73
2023/03/06 14:20:48;;;;;;;5.95;1.33;;;;;;;-0.12;100.00;99689.41;6208213;23;20044;-73
2023/03/06 14:23:15;;;;;;;7.80;1.80;;;;;;;-0.29;100.00;99684.59;6209531;23;20029;-73
2023/03/06 14:25:44;;;;;;;7.68;1.40;;;;;;;-0.57;100.00;99685.78;6210952;23;20028;-72
2023/03/06 14:28:25;;;;;;;11.73;1.95;;;;;;;-0.34;100.00;99694.63;6211383;23;20341;-72
2023/03/06 14:30:54;;;;;;;17.10;1.88;;;;;;;-0.36;100.00;99685.97;6210706;23;20024;-72
2023/03/06 14:33:52;;;;;;;16.58;2.42;;;;;;;-0.36;100.00;99685.97;6210244;23;20098;-73
2023/03/06 14:36:21;;;;;;;8.55;1.80;;;;;;;-0.64;100.00;99687.19;6193208;23;20036;-72
2023/03/06 14:38:51;;;;;;;8.93;1.60;;;;;;;-0.49;100.00;99686.06;6207653;23;20021;-73
2023/03/06 14:41:23;;;;;;;7.78;1.73;;;;;;;-0.67;100.00;99683.03;6209644;23;20029;-73
2023/03/06 14:43:49;;;;;;;7.03;1.17;;;;;;;-0.62;100.00;99686.13;6207845;23;20020;-73
2023/03/06 14:46:21;;;;;;;15.52;1.33;;;;;;;-0.37;100.00;99684.31;6209157;23;20024;-72
2023/03/06 14:48:48;;;;;;;7.30;1.23;;;;;;;-0.30;100.00;99674.97;6208800;23;20361;-72
2023/03/06 14:51:20;;;;;;;23.23;2.05;;;;;;;-0.37;100.00;99679.03;6209581;23;20025;-73
2023/03/06 14:53:52;;;;;;;9.25;1.38;;;;;;;-0.28;100.00;99675.72;6211284;23;20016;-72
2023/03/06 14:56:22;;;;;;;14.43;1.92;;;;;;;-0.20;100.00;99681.22;6211168;23;20052;-73
2023/03/06 14:58:57;;;;;;;17.80;5.50;;;;;;;-0.45;100.00;99676.97;6210990;23;20091;-73
2023/03/06 15:01:35;;;;;;;19.50;2.95;;;;;;;-0.52;100.00;99679.22;6210647;23;20099;-73
2023/03/06 15:04:35;;;;;;;7.82;1.70;;;;;;;-0.66;100.00;99676.78;6210599;23;20020;-73
2023/03/06 15:07:09;;;;;;;5.88;1.10;;;;;;;-0.61;100.00;99679.91;6192441;23;20009;-73
2023/03/06 15:09:37;;;;;;;7.00;1.38;;;;;;;-0.64;100.00;99679.28;6211445;23;20082;-73
2023/03/06 15:12:28;;;;;;;12.60;1.70;;;;;;;-0.79;100.00;99676.00;6211612;23;20032;-73
2023/03/06 15:15:07;;;;;;;3.28;0.88;;;;;;;-1.13;100.00;99678.47;6209158;23;20040;-73
2023/03/06 15:17:40;;;;;;;8.27;1.27;;;;;;;-0.87;100.00;99679.22;6211154;23;20099;-73
2023/03/06 15:20:40;;;;;;;3.30;1.73;;;;;;;-0.68;100.00;99676.88;6210316;23;20025;-73
2023/03/06 15:23:25;;;;;;;12.13;1.23;;;;;;;-0.67;100.00;99683.84;6209937;23;20031;-73
2023/03/06 15:25:55;;;;;;;9.30;1.50;;;;;;;-0.78;100.00;99685.59;6210398;23;20341;-73
2023/03/06 15:28:27;;;;;;;11.30;2.25;;;;;;;-0.86;100.00;99677.41;6209405;23;20024;-73
2023/03/06 15:31:02;;;;;;;6.75;1.30;;;;;;;-0.79;100.00;99684.75;6204922;23;20357;-73
2023/03/06 15:33:29;;;;;;;9.15;1.33;;;;;;;-0.85;100.00;99677.28;6212101;23;24807;-72
2023/03/06 15:35:59;;;;;;;5.07;1.00;;;;;;;-0.82;100.00;99678.88;6210442;23;20021;-73
2023/03/06 15:38:42;;;;;;;9.07;1.88;;;;;;;-0.76;100.00;99667.88;6209967;23;20027;-72
2023/03/06 15:41:20;;;;;;;5.40;1.58;;;;;;;-0.74;100.00;99676.53;6210835;23;20096;-72
2023/03/06 15:43:47;;;;;;;10.00;1.63;;;;;;;-0.77;100.00;99676.75;6210514;23;20047;-72
2023/03/06 15:46:14;;;;;;;8.52;0.85;;;;;;;-1.03;100.00;99676.00;6210982;23;20044;-72
2023/03/06 15:48:57;;;;;;;14.20;1.38;;;;;;;-1.11;100.00;99679.22;6210984;23;20020;-72
2023/03/06 15:51:27;;;;;;;6.95;1.45;;;;;;;-1.15;100.00;99677.75;6199472;23;20369;-73
2023/03/06 15:53:54;;;;;;;12.93;1.25;;;;;;;-1.06;100.00;99676.22;6210868;23;20021;-72
2023/03/06 15:56:40;;;;;;;11.15;1.83;;;;;;;-1.10;100.00;99672.97;6211798;23;20029;-72
2023/03/06 15:59:14;;;;;;;6.95;1.23;;;;;;;-1.17;100.00;99669.94;6211403;23;20044;-72
2023/03/06 16:01:42;;;;;;;6.25;1.23;;;;;;;-1.23;100.00;99669.56;6209561;23;20341;-72
2023/03/06 16:04:08;;;;;;;28.40;2.40;;;;;;;-1.30;100.00;99663.91;6210897;23;20028;-72
2023/03/06 16:06:36;;;;;;;12.20;1.88;;;;;;;-1.28;100.00;99672.53;6209464;23;20025;-72
2023/03/06 16:09:04;;;;;;;7.70;1.40;;;;;;;-1.31;100.00;99666.66;6211263;23;20025;-72